BAW9L LOWW-LHBP
Flight info
| Callsign | BAW9L |
|---|---|
| Flight time | 0h 24m |
| Altitude | 21000 |
| Route | ADAMA2B ADAMA Z647 ANEXA ANEXA2T |
| Aircraft | B77W/H-SDE1E3FGHIJ3J4J5J6M1M2P2RWXYZ/LB1D1 |
Departure
| Time | 2026-05-06 17:21 |
|---|---|
| Airport | Vienna International Airport (LOWW) |
Arrival
| Time | 2026-05-06 17:45 |
|---|---|
| Airport | Budapest Liszt Ferenc International Airport (LHBP) |
| Time | Latitude | Longitude | Altitude | Speed | Heading |
|---|---|---|---|---|---|
| 2026-05-06 17:00 | 48.11772 | 16.56593 | 628 ft | 0 kts | 25° |
| 2026-05-06 17:11 | 48.11768 | 16.56590 | 613 ft | 2 kts | 25° |
| 2026-05-06 17:11 | 48.11754 | 16.56580 | 628 ft | 2 kts | 25° |
| 2026-05-06 17:12 | 48.11739 | 16.56570 | 628 ft | 2 kts | 25° |
| 2026-05-06 17:12 | 48.11724 | 16.56559 | 628 ft | 2 kts | 33° |
| 2026-05-06 17:12 | 48.11711 | 16.56544 | 628 ft | 2 kts | 49° |
| 2026-05-06 17:12 | 48.11709 | 16.56522 | 628 ft | 2 kts | 118° |
| 2026-05-06 17:13 | 48.11703 | 16.56538 | 628 ft | 2 kts | 118° |
| 2026-05-06 17:13 | 48.11696 | 16.56558 | 628 ft | 2 kts | 116° |
| 2026-05-06 17:13 | 48.11695 | 16.56560 | 628 ft | 0 kts | 116° |
| 2026-05-06 17:15 | 48.11675 | 16.56621 | 619 ft | 12 kts | 116° |
| 2026-05-06 17:15 | 48.11652 | 16.56692 | 624 ft | 12 kts | 116° |
| 2026-05-06 17:15 | 48.11647 | 16.56706 | 620 ft | 0 kts | 116° |
| 2026-05-06 17:15 | 48.11647 | 16.56707 | 620 ft | 1 kts | 116° |
| 2026-05-06 17:16 | 48.11625 | 16.56776 | 622 ft | 16 kts | 115° |
| 2026-05-06 17:16 | 48.11574 | 16.56932 | 622 ft | 17 kts | 116° |
| 2026-05-06 17:16 | 48.11523 | 16.57090 | 626 ft | 17 kts | 116° |
| 2026-05-06 17:16 | 48.11472 | 16.57247 | 627 ft | 17 kts | 116° |
| 2026-05-06 17:17 | 48.11435 | 16.57362 | 626 ft | 8 kts | 114° |
| 2026-05-06 17:17 | 48.11460 | 16.57431 | 625 ft | 9 kts | 36° |
| 2026-05-06 17:17 | 48.11514 | 16.57478 | 622 ft | 9 kts | 30° |
| 2026-05-06 17:17 | 48.11574 | 16.57531 | 627 ft | 10 kts | 30° |
| 2026-05-06 17:18 | 48.11645 | 16.57541 | 622 ft | 11 kts | 349° |
| 2026-05-06 17:18 | 48.11722 | 16.57508 | 628 ft | 13 kts | 344° |
| 2026-05-06 17:18 | 48.11835 | 16.57461 | 623 ft | 19 kts | 344° |
| 2026-05-06 17:18 | 48.11914 | 16.57428 | 625 ft | 0 kts | 344° |
| 2026-05-06 17:19 | 48.11937 | 16.57419 | 620 ft | 7 kts | 344° |
| 2026-05-06 17:19 | 48.11990 | 16.57420 | 621 ft | 8 kts | 27° |
| 2026-05-06 17:19 | 48.12008 | 16.57494 | 625 ft | 8 kts | 92° |
| 2026-05-06 17:19 | 48.11997 | 16.57587 | 616 ft | 12 kts | 103° |
| 2026-05-06 17:20 | 48.11971 | 16.57737 | 625 ft | 12 kts | 107° |
| 2026-05-06 17:20 | 48.11924 | 16.57836 | 625 ft | 16 kts | 151° |
| 2026-05-06 17:20 | 48.11666 | 16.57950 | 621 ft | 74 kts | 164° |
| 2026-05-06 17:20 | 48.10898 | 16.58278 | 638 ft | 149 kts | 163° |
| 2026-05-06 17:21 | 48.09836 | 16.58732 | 1209 ft | 165 kts | 166° |
| 2026-05-06 17:21 | 48.08701 | 16.59207 | 2012 ft | 175 kts | 167° |
| 2026-05-06 17:21 | 48.07469 | 16.59721 | 2562 ft | 199 kts | 167° |
| 2026-05-06 17:21 | 48.06022 | 16.60406 | 2880 ft | 232 kts | 159° |
| 2026-05-06 17:22 | 48.04709 | 16.61945 | 3679 ft | 256 kts | 134° |
| 2026-05-06 17:22 | 48.03888 | 16.64397 | 4682 ft | 274 kts | 109° |
| 2026-05-06 17:22 | 48.03788 | 16.67300 | 5659 ft | 285 kts | 91° |
| 2026-05-06 17:22 | 48.03890 | 16.70301 | 6586 ft | 292 kts | 92° |
| 2026-05-06 17:23 | 48.03963 | 16.73318 | 7676 ft | 291 kts | 92° |
| 2026-05-06 17:23 | 48.04026 | 16.76378 | 8603 ft | 299 kts | 93° |
| 2026-05-06 17:23 | 48.04087 | 16.79502 | 9600 ft | 302 kts | 93° |
| 2026-05-06 17:23 | 48.04146 | 16.82662 | 10448 ft | 310 kts | 93° |
| 2026-05-06 17:24 | 48.04018 | 16.85969 | 10779 ft | 331 kts | 104° |
| 2026-05-06 17:24 | 48.03482 | 16.89453 | 11024 ft | 358 kts | 109° |
| 2026-05-06 17:24 | 48.02817 | 16.93143 | 11653 ft | 373 kts | 108° |
| 2026-05-06 17:24 | 48.02176 | 16.96931 | 12562 ft | 380 kts | 107° |
| 2026-05-06 17:25 | 48.01559 | 17.00804 | 13559 ft | 385 kts | 107° |
| 2026-05-06 17:25 | 48.00966 | 17.04739 | 14444 ft | 392 kts | 104° |
| 2026-05-06 17:25 | 48.00575 | 17.08805 | 15325 ft | 399 kts | 99° |
| 2026-05-06 17:25 | 48.00302 | 17.12964 | 16209 ft | 405 kts | 98° |
| 2026-05-06 17:26 | 48.00043 | 17.17180 | 17079 ft | 411 kts | 98° |
| 2026-05-06 17:26 | 47.99759 | 17.21454 | 17948 ft | 417 kts | 98° |
| 2026-05-06 17:26 | 47.99445 | 17.25772 | 18755 ft | 419 kts | 99° |
| 2026-05-06 17:26 | 47.99112 | 17.30127 | 19285 ft | 426 kts | 99° |
| 2026-05-06 17:27 | 47.98767 | 17.34545 | 19762 ft | 429 kts | 99° |
| 2026-05-06 17:27 | 47.98354 | 17.38918 | 20052 ft | 432 kts | 101° |
| 2026-05-06 17:27 | 47.97862 | 17.43327 | 20292 ft | 431 kts | 102° |
| 2026-05-06 17:27 | 47.97339 | 17.47751 | 20544 ft | 432 kts | 102° |
| 2026-05-06 17:28 | 47.96813 | 17.52181 | 20715 ft | 435 kts | 102° |
| 2026-05-06 17:28 | 47.96290 | 17.56627 | 20765 ft | 433 kts | 102° |
| 2026-05-06 17:28 | 47.95785 | 17.60997 | 20792 ft | 423 kts | 102° |
| 2026-05-06 17:28 | 47.95293 | 17.65301 | 20800 ft | 417 kts | 102° |
| 2026-05-06 17:29 | 47.94808 | 17.69555 | 20804 ft | 415 kts | 102° |
| 2026-05-06 17:29 | 47.94328 | 17.73752 | 20657 ft | 407 kts | 102° |
| 2026-05-06 17:29 | 47.93858 | 17.77869 | 20419 ft | 398 kts | 102° |
| 2026-05-06 17:29 | 47.93395 | 17.81898 | 20104 ft | 391 kts | 102° |
| 2026-05-06 17:30 | 47.92937 | 17.85869 | 19716 ft | 383 kts | 102° |
| 2026-05-06 17:30 | 47.92489 | 17.89740 | 19059 ft | 377 kts | 102° |
| 2026-05-06 17:30 | 47.92043 | 17.93575 | 18272 ft | 375 kts | 103° |
| 2026-05-06 17:30 | 47.91597 | 17.97395 | 17392 ft | 372 kts | 103° |
| 2026-05-06 17:31 | 47.91155 | 18.01173 | 16569 ft | 368 kts | 103° |
| 2026-05-06 17:31 | 47.90718 | 18.04902 | 15800 ft | 362 kts | 103° |
| 2026-05-06 17:31 | 47.90292 | 18.08525 | 15091 ft | 356 kts | 103° |
| 2026-05-06 17:31 | 47.89866 | 18.12141 | 14379 ft | 352 kts | 103° |
| 2026-05-06 17:32 | 47.89445 | 18.15708 | 13659 ft | 347 kts | 103° |
| 2026-05-06 17:32 | 47.89024 | 18.19251 | 13189 ft | 351 kts | 103° |
| 2026-05-06 17:32 | 47.88594 | 18.22847 | 13006 ft | 352 kts | 103° |
| 2026-05-06 17:32 | 47.88171 | 18.26400 | 12916 ft | 343 kts | 103° |
| 2026-05-06 17:33 | 47.87755 | 18.29870 | 12853 ft | 337 kts | 105° |
| 2026-05-06 17:33 | 47.87039 | 18.33172 | 12847 ft | 335 kts | 119° |
| 2026-05-06 17:33 | 47.85891 | 18.36159 | 12614 ft | 332 kts | 126° |
| 2026-05-06 17:33 | 47.84671 | 18.39069 | 12200 ft | 332 kts | 126° |
| 2026-05-06 17:34 | 47.83443 | 18.41975 | 11732 ft | 331 kts | 126° |
| 2026-05-06 17:34 | 47.82222 | 18.44873 | 11330 ft | 329 kts | 126° |
| 2026-05-06 17:34 | 47.81014 | 18.47752 | 10952 ft | 322 kts | 126° |
| 2026-05-06 17:34 | 47.79844 | 18.50550 | 10274 ft | 317 kts | 126° |
| 2026-05-06 17:35 | 47.78677 | 18.53341 | 9460 ft | 318 kts | 126° |
| 2026-05-06 17:35 | 47.77514 | 18.56123 | 8664 ft | 315 kts | 126° |
| 2026-05-06 17:35 | 47.76365 | 18.58877 | 7930 ft | 312 kts | 126° |
| 2026-05-06 17:36 | 47.74126 | 18.64241 | 6914 ft | 299 kts | 127° |
| 2026-05-06 17:36 | 47.73028 | 18.66864 | 6553 ft | 298 kts | 127° |
| 2026-05-06 17:36 | 47.71930 | 18.69483 | 6158 ft | 297 kts | 126° |
| 2026-05-06 17:36 | 47.70857 | 18.72040 | 5762 ft | 294 kts | 127° |
| 2026-05-06 17:37 | 47.69778 | 18.74613 | 5406 ft | 291 kts | 127° |
| 2026-05-06 17:37 | 47.68713 | 18.77155 | 5126 ft | 285 kts | 127° |
| 2026-05-06 17:37 | 47.67683 | 18.79610 | 5007 ft | 276 kts | 127° |
| 2026-05-06 17:37 | 47.66687 | 18.81985 | 4886 ft | 267 kts | 127° |
| 2026-05-06 17:38 | 47.65716 | 18.84291 | 4790 ft | 258 kts | 127° |
| 2026-05-06 17:38 | 47.64777 | 18.86519 | 4646 ft | 251 kts | 127° |
| 2026-05-06 17:38 | 47.63866 | 18.88680 | 4550 ft | 242 kts | 127° |
| 2026-05-06 17:38 | 47.62986 | 18.90764 | 4454 ft | 237 kts | 128° |
| 2026-05-06 17:39 | 47.62107 | 18.92840 | 4367 ft | 237 kts | 128° |
| 2026-05-06 17:39 | 47.61225 | 18.94920 | 4217 ft | 241 kts | 128° |
| 2026-05-06 17:39 | 47.60271 | 18.96962 | 4076 ft | 237 kts | 134° |
| 2026-05-06 17:39 | 47.59218 | 18.98776 | 4021 ft | 227 kts | 137° |
| 2026-05-06 17:40 | 47.58192 | 19.00444 | 3972 ft | 215 kts | 138° |
| 2026-05-06 17:40 | 47.57204 | 19.02043 | 3965 ft | 210 kts | 138° |
| 2026-05-06 17:40 | 47.56193 | 19.03678 | 3692 ft | 217 kts | 137° |
| 2026-05-06 17:40 | 47.55180 | 19.05329 | 3446 ft | 216 kts | 137° |
| 2026-05-06 17:41 | 47.54180 | 19.06959 | 3152 ft | 213 kts | 137° |
| 2026-05-06 17:41 | 47.53196 | 19.08559 | 2860 ft | 207 kts | 137° |
| 2026-05-06 17:41 | 47.52259 | 19.10087 | 2568 ft | 193 kts | 137° |
| 2026-05-06 17:41 | 47.51383 | 19.11512 | 2332 ft | 181 kts | 138° |
| 2026-05-06 17:42 | 47.50573 | 19.12830 | 2117 ft | 166 kts | 139° |
| 2026-05-06 17:42 | 47.49826 | 19.14042 | 1888 ft | 151 kts | 140° |
| 2026-05-06 17:42 | 47.49138 | 19.15157 | 1728 ft | 148 kts | 140° |
| 2026-05-06 17:42 | 47.48441 | 19.16286 | 1512 ft | 149 kts | 139° |
| 2026-05-06 17:43 | 47.47744 | 19.17419 | 1331 ft | 147 kts | 138° |
| 2026-05-06 17:43 | 47.47066 | 19.18517 | 1093 ft | 143 kts | 136° |
| 2026-05-06 17:43 | 47.46409 | 19.19583 | 897 ft | 140 kts | 136° |
| 2026-05-06 17:43 | 47.45746 | 19.20658 | 729 ft | 143 kts | 139° |
| 2026-05-06 17:44 | 47.45085 | 19.21737 | 564 ft | 143 kts | 136° |
| 2026-05-06 17:44 | 47.44431 | 19.22795 | 463 ft | 130 kts | 133° |
| 2026-05-06 17:44 | 47.43885 | 19.23669 | 462 ft | 98 kts | 132° |
| 2026-05-06 17:44 | 47.43505 | 19.24277 | 458 ft | 63 kts | 133° |
| 2026-05-06 17:45 | 47.43296 | 19.24619 | 460 ft | 28 kts | 132° |
| 2026-05-06 17:45 | 47.43169 | 19.24823 | 462 ft | 25 kts | 133° |
| 2026-05-06 17:45 | 47.43098 | 19.24936 | 463 ft | 13 kts | 129° |
| 2026-05-06 17:45 | 47.43105 | 19.25057 | 463 ft | 13 kts | 51° |
| 2026-05-06 17:46 | 47.43171 | 19.25148 | 463 ft | 13 kts | 43° |
| 2026-05-06 17:46 | 47.43236 | 19.25239 | 466 ft | 13 kts | 43° |
| 2026-05-06 17:46 | 47.43302 | 19.25330 | 471 ft | 13 kts | 43° |
| 2026-05-06 17:46 | 47.43334 | 19.25409 | 471 ft | 9 kts | 93° |
| 2026-05-06 17:47 | 47.43305 | 19.25493 | 471 ft | 9 kts | 130° |
| 2026-05-06 17:47 | 47.43261 | 19.25565 | 471 ft | 9 kts | 131° |
| 2026-05-06 17:47 | 47.43245 | 19.25600 | 471 ft | 4 kts | 110° |
| 2026-05-06 17:47 | 47.43260 | 19.25652 | 470 ft | 6 kts | 44° |
| 2026-05-06 17:48 | 47.43281 | 19.25680 | 473 ft | 3 kts | 42° |
| 2026-05-06 17:48 | 47.43293 | 19.25695 | 473 ft | 1 kts | 42° |
| 2026-05-06 17:48 | 47.43294 | 19.25697 | 473 ft | 0 kts | 42° |